Time;durP1;ratioP1;P1;durP2;ratioP2;P2;SDS_P1;SDS_P2;PMS_P1;PMS_P2;Temp;Humidity;BMP_temperature;BMP_pressure;BME280_temperature;BME280_humidity;BME280_pressure;Samples;Min_cycle;Max_cycle;Signal;HPM_P1;HPM_P2
2021/12/23 00:01:25;;;;;;;;;65.33;46.00;;;;;0.53;69.90;101403.91;5085269;27;45459;-65
2021/12/23 00:03:51;;;;;;;;;68.67;50.67;;;;;0.53;69.62;101404.81;5090173;27;45473;-65
2021/12/23 00:06:16;;;;;;;;;60.00;47.33;;;;;0.57;70.06;101413.75;5086674;27;45251;-65
2021/12/23 00:08:42;;;;;;;;;50.33;42.00;;;;;0.53;70.36;101404.81;5088359;27;45363;-65
2021/12/23 00:11:07;;;;;;;;;67.67;50.00;;;;;0.55;69.60;101400.63;5085330;27;45496;-64
2021/12/23 00:13:35;;;;;;;;;63.00;47.67;;;;;0.54;69.82;101395.34;5087625;27;45305;-65
2021/12/23 00:16:06;;;;;;;;;62.00;45.00;;;;;0.52;69.45;101389.09;5085482;27;45224;-65
2021/12/23 00:23:48;;;;;;;;;66.33;48.33;;;;;0.27;70.37;101360.38;5085069;27;45311;-65
2021/12/23 00:26:14;;;;;;;;;55.33;43.00;;;;;0.10;70.32;101333.13;5086262;27;45370;-65
2021/12/23 00:28:39;;;;;;;;;57.33;45.33;;;;;0.24;70.15;101353.25;5083982;27;45464;-65
2021/12/23 00:31:06;;;;;;;;;58.00;43.67;;;;;0.41;70.73;101384.00;5084621;27;46332;-65
2021/12/23 00:33:34;;;;;;;;;54.67;45.67;;;;;0.26;70.65;101343.88;5085357;27;45251;-66
2021/12/23 00:35:59;;;;;;;;;68.33;49.00;;;;;0.34;70.22;101357.47;5085152;27;45435;-65
2021/12/23 00:38:33;;;;;;;;;61.00;45.33;;;;;0.32;69.57;101359.94;5086280;27;46374;-65
2021/12/23 00:41:01;;;;;;;;;53.67;45.00;;;;;0.24;71.14;101354.94;5091528;27;45392;-65
2021/12/23 00:43:27;;;;;;;;;54.67;42.67;;;;;0.16;71.23;101357.88;5085438;27;45460;-65
2021/12/23 00:45:52;;;;;;;;;62.00;47.00;;;;;0.13;71.08;101348.94;5087479;27;45326;-65
2021/12/23 00:48:18;;;;;;;;;58.67;47.00;;;;;0.21;70.99;101372.13;5098471;27;45993;-65
2021/12/23 00:50:46;;;;;;;;;57.67;47.67;;;;;0.16;70.83;101354.38;5085167;27;46205;-65
2021/12/23 00:53:16;;;;;;;;;52.33;43.67;;;;;0.14;71.47;101348.16;5091239;27;45422;-65
2021/12/23 00:55:41;;;;;;;;;51.67;42.00;;;;;0.10;71.80;101338.31;5093388;27;45440;-65
2021/12/23 00:58:07;;;;;;;;;64.33;46.33;;;;;0.01;71.26;101311.66;5095322;27;46048;-65
2021/12/23 01:00:33;;;;;;;;;56.00;45.00;;;;;0.13;71.77;101341.16;5081331;27;45644;-65
2021/12/23 01:02:59;;;;;;;;;48.33;43.00;;;;;0.12;71.54;101347.16;5093970;27;45413;-65
2021/12/23 01:05:25;;;;;;;;;57.67;41.33;;;;;0.06;71.67;101342.41;5081521;27;45350;-65
2021/12/23 01:07:51;;;;;;;;;45.00;40.33;;;;;0.00;71.59;101336.75;5090961;27;45444;-65
2021/12/23 01:10:17;;;;;;;;;61.33;41.33;;;;;-0.01;71.67;101337.50;5094452;27;46345;-65
2021/12/23 01:12:53;;;;;;;;;61.33;45.00;;;;;-0.05;72.10;101333.78;5088572;27;45220;-65
2021/12/23 01:18:08;;;;;;;;;59.00;46.67;;;;;0.01;72.97;101348.03;5087371;27;45503;-65
2021/12/23 01:20:37;;;;;;;;;71.00;47.33;;;;;-0.09;71.51;101318.75;5098519;27;47274;-65
2021/12/23 01:23:08;;;;;;;;;77.67;49.67;;;;;-0.04;72.31;101330.41;5085819;27;45744;-65
2021/12/23 01:25:36;;;;;;;;;55.67;40.00;;;;;-0.04;71.78;101327.78;5084927;27;45453;-65
2021/12/23 01:28:02;;;;;;;;;63.67;48.33;;;;;0.03;72.07;101329.19;5090401;27;46017;-65
2021/12/23 01:30:27;;;;;;;;;69.00;48.00;;;;;-0.01;72.72;101320.22;5081961;27;47376;-65
2021/12/23 01:32:56;;;;;;;;;58.00;46.00;;;;;0.00;72.66;101318.56;5091265;27;45685;-65
2021/12/23 01:35:22;;;;;;;;;62.67;47.33;;;;;-0.02;72.77;101302.84;5084903;27;45500;-65
2021/12/23 01:37:47;;;;;;;;;70.33;50.33;;;;;0.04;72.17;101317.09;5089712;27;46127;-65
2021/12/23 01:40:15;;;;;;;;;68.67;50.00;;;;;0.06;72.95;101315.50;5092408;27;45450;-65
2021/12/23 01:42:41;;;;;;;;;68.33;48.67;;;;;0.11;72.62;101317.66;5096486;27;45460;-65
2021/12/23 01:45:13;;;;;;;;;67.00;47.33;;;;;0.10;73.09;101307.13;5099686;27;45280;-65
2021/12/23 01:47:39;;;;;;;;;72.00;50.33;;;;;0.09;73.08;101305.34;5093954;27;45330;-65
2021/12/23 01:50:05;;;;;;;;;66.33;45.00;;;;;0.10;72.55;101289.84;5083180;27;45406;-65
2021/12/23 01:52:30;;;;;;;;;63.00;44.67;;;;;0.15;72.96;101301.50;5092175;27;45306;-65
2021/12/23 01:54:56;;;;;;;;;63.67;47.67;;;;;0.17;72.78;101299.00;5088799;27;46281;-65
2021/12/23 01:57:22;;;;;;;;;64.00;45.00;;;;;0.15;72.72;101291.09;5090724;27;45593;-65
2021/12/23 01:59:48;;;;;;;;;60.67;46.33;;;;;0.21;72.90;101285.44;5088608;27;45625;-65
2021/12/23 02:02:13;;;;;;;;;64.00;48.33;;;;;0.03;72.69;101247.69;5091156;27;45302;-65
2021/12/23 02:04:38;;;;;;;;;53.33;46.33;;;;;0.31;72.77;101289.59;5089061;27;45263;-65
2021/12/23 02:07:04;;;;;;;;;62.67;50.67;;;;;0.26;72.71;101281.47;5095156;27;45585;-65
2021/12/23 02:09:29;;;;;;;;;56.33;46.33;;;;;0.38;72.67;101299.66;5087295;27;46983;-65
2021/12/23 02:11:55;;;;;;;;;59.33;43.00;;;;;0.36;73.23;101296.94;5087828;27;45916;-65
2021/12/23 02:14:22;;;;;;;;;66.33;51.00;;;;;0.39;72.54;101294.59;5095108;27;45206;-65
2021/12/23 02:16:48;;;;;;;;;56.00;44.00;;;;;0.44;72.83;101288.00;5088515;27;45532;-65
2021/12/23 02:19:17;;;;;;;;;61.33;46.33;;;;;0.46;72.51;101287.22;5088571;27;45436;-65
2021/12/23 02:21:47;;;;;;;;;68.00;47.67;;;;;0.48;72.53;101291.75;5089696;27;45399;-65
2021/12/23 02:24:13;;;;;;;;;61.00;45.33;;;;;0.40;72.83;101275.59;5087112;27;45319;-65
2021/12/23 02:26:40;;;;;;;;;67.33;49.33;;;;;0.50;72.80;101286.66;5091493;27;45432;-65
2021/12/23 02:29:06;;;;;;;;;63.67;48.67;;;;;0.47;72.40;101283.81;5080798;27;48290;-65
2021/12/23 02:31:32;;;;;;;;;41.67;37.00;;;;;0.55;71.77;101287.88;5091073;27;45525;-65
2021/12/23 02:33:58;;;;;;;;;51.00;42.67;;;;;0.58;72.44;101275.09;5083780;27;45486;-65
2021/12/23 02:36:23;;;;;;;;;68.67;45.33;;;;;0.58;72.05;101275.09;5093371;27;46800;-65
2021/12/23 02:38:49;;;;;;;;;65.33;48.33;;;;;0.60;72.13;101276.13;5085639;27;45495;-65
2021/12/23 02:41:14;;;;;;;;;65.67;48.00;;;;;0.61;72.45;101276.22;5095102;27;45357;-65
2021/12/23 02:43:40;;;;;;;;;67.00;47.33;;;;;0.58;72.31;101260.38;5085968;27;45665;-65
2021/12/23 02:46:05;;;;;;;;;71.00;51.67;;;;;0.61;72.41;101265.81;5105074;27;47311;-65
2021/12/23 02:48:34;;;;;;;;;73.00;50.67;;;;;0.63;71.71;101260.72;5087106;27;46560;-65
2021/12/23 02:51:04;;;;;;;;;64.67;47.67;;;;;0.68;72.10;101258.47;5086661;27;45359;-65
2021/12/23 02:53:29;;;;;;;;;51.33;41.67;;;;;0.69;71.64;101257.66;5093746;27;45247;-65
2021/12/23 02:55:57;;;;;;;;;60.67;49.33;;;;;0.72;71.94;101266.56;5084723;27;45347;-65
2021/12/23 02:58:24;;;;;;;;;69.67;51.33;;;;;0.63;71.76;101251.22;5096999;27;45684;-65
2021/12/23 03:00:51;;;;;;;;;65.33;51.33;;;;;0.65;72.17;101251.34;5086647;27;45369;-65
2021/12/23 03:03:17;;;;;;;;;67.00;50.00;;;;;0.73;72.05;101264.88;5092009;27;45330;-66
2021/12/23 03:05:55;;;;;;;;;65.33;48.33;;;;;0.69;72.21;101263.75;5083278;27;45233;-65
2021/12/23 03:08:31;;;;;;;;;65.67;51.00;;;;;0.73;71.63;101250.19;5088553;27;48273;-65
2021/12/23 03:10:56;;;;;;;;;63.67;50.67;;;;;0.80;71.26;101256.72;5083313;27;45444;-65
2021/12/23 03:13:22;;;;;;;;;63.33;49.67;;;;;0.79;71.73;101240.22;5090524;27;45398;-65
2021/12/23 03:15:47;;;;;;;;;69.67;51.67;;;;;0.80;71.29;101241.09;5083256;27;45691;-65
2021/12/23 03:18:13;;;;;;;;;59.33;43.33;;;;;0.80;71.74;101234.19;5089681;27;45396;-65
2021/12/23 03:20:38;;;;;;;;;63.67;47.67;;;;;0.85;71.82;101238.03;5083038;27;45312;-65
2021/12/23 03:23:04;;;;;;;;;58.00;48.33;;;;;0.83;71.40;101230.91;5087106;27;45299;-65
2021/12/23 03:25:29;;;;;;;;;65.00;44.00;;;;;0.83;71.88;101230.91;5082833;27;45473;-65
2021/12/23 03:27:54;;;;;;;;;65.67;48.00;;;;;0.84;71.65;101227.50;5094309;27;47052;-65
2021/12/23 03:30:20;;;;;;;;;58.33;44.33;;;;;0.86;71.37;101229.41;5082853;27;45355;-65
2021/12/23 03:32:45;;;;;;;;;63.00;49.00;;;;;0.82;71.76;101226.50;5089669;27;45414;-65
2021/12/23 03:35:11;;;;;;;;;68.33;52.00;;;;;0.65;71.79;101188.91;5080283;27;46306;-65
2021/12/23 03:37:36;;;;;;;;;58.33;44.33;;;;;0.86;71.32;101213.81;5091500;27;46170;-65
2021/12/23 03:40:04;;;;;;;;;54.00;42.67;;;;;0.84;71.63;101206.69;5089637;27;45367;-65
2021/12/23 03:42:29;;;;;;;;;55.33;46.67;;;;;0.84;71.13;101205.00;5090302;27;45389;-65
2021/12/23 03:44:54;;;;;;;;;59.33;43.00;;;;;0.85;71.22;101196.41;5080284;27;45743;-65
2021/12/23 03:47:20;;;;;;;;;68.00;49.00;;;;;0.88;71.25;101201.81;5098813;27;46226;-65
2021/12/23 03:49:45;;;;;;;;;66.33;47.00;;;;;0.93;71.60;101207.34;5088987;27;45347;-65
2021/12/23 03:52:11;;;;;;;;;58.00;44.67;;;;;0.87;71.39;101196.53;5088259;27;45402;-65
2021/12/23 03:54:36;;;;;;;;;68.33;48.67;;;;;0.88;71.55;101199.22;5089066;27;45410;-65
2021/12/23 03:57:01;;;;;;;;;62.67;46.67;;;;;0.97;71.20;101213.66;5089148;27;45331;-64
2021/12/23 03:59:27;;;;;;;;;50.33;42.00;;;;;0.90;71.28;101186.31;5089027;27;45382;-65
2021/12/23 04:01:53;;;;;;;;;70.00;49.67;;;;;0.97;71.65;101187.63;5087089;27;45421;-65
2021/12/23 04:04:18;;;;;;;;;70.00;52.67;;;;;0.87;71.34;101188.72;5088886;27;45291;-65
2021/12/23 04:06:44;;;;;;;;;68.00;50.67;;;;;0.93;71.05;101190.84;5085062;27;46300;-65
2021/12/23 04:09:09;;;;;;;;;61.00;46.67;;;;;0.80;71.41;101187.38;5086165;27;45449;-64
2021/12/23 04:11:34;;;;;;;;;66.33;49.00;;;;;0.85;71.67;101178.19;5082755;27;45389;-65
2021/12/23 04:14:00;;;;;;;;;63.33;46.67;;;;;0.85;71.60;101177.28;5086449;27;45317;-65
2021/12/23 04:16:25;;;;;;;;;59.33;47.00;;;;;0.65;71.24;101131.69;5081405;27;46954;-65
2021/12/23 04:18:51;;;;;;;;;105.00;77.33;;;;;0.85;71.67;101153.88;5085476;27;45292;-65
2021/12/23 04:21:18;;;;;;;;;105.50;85.75;;;;;0.87;71.15;101154.88;5086369;27;45378;-65
2021/12/23 04:23:43;;;;;;;;;77.33;60.67;;;;;0.89;71.82;101164.56;5084157;27;45466;-65
2021/12/23 04:26:09;;;;;;;;;63.33;50.00;;;;;0.92;72.16;101156.06;5084825;27;45574;-65
2021/12/23 04:28:45;;;;;;;;;62.67;49.33;;;;;0.96;71.83;101149.41;5085130;27;45324;-65
2021/12/23 04:31:11;;;;;;;;;56.33;43.67;;;;;0.99;71.75;101149.59;5085104;27;45271;-65
2021/12/23 04:33:37;;;;;;;;;109.75;84.00;;;;;1.00;71.15;101148.78;5095639;27;46013;-65
2021/12/23 04:36:02;;;;;;;;;69.00;49.00;;;;;1.05;71.44;101153.53;5084568;27;45415;-65
2021/12/23 04:38:28;;;;;;;;;68.67;49.00;;;;;1.03;71.79;101141.19;5085705;27;45434;-65
2021/12/23 04:40:53;;;;;;;;;63.00;49.00;;;;;1.07;71.53;101143.22;5091089;27;45271;-65
2021/12/23 04:43:18;;;;;;;;;61.00;47.67;;;;;1.07;71.69;101140.63;5087350;27;45523;-65
2021/12/23 04:45:44;;;;;;;;;79.67;59.33;;;;;1.14;71.33;101145.41;5085326;27;45608;-65
2021/12/23 04:48:09;;;;;;;;;68.33;53.33;;;;;1.09;71.41;101132.13;5099669;27;45228;-65
2021/12/23 04:50:34;;;;;;;;;62.00;46.00;;;;;1.15;70.80;101142.03;5085238;27;45463;-65
2021/12/23 04:53:00;;;;;;;;;62.33;43.33;;;;;1.13;71.13;101145.34;5090674;27;45330;-65
2021/12/23 04:55:25;;;;;;;;;67.00;52.67;;;;;1.16;71.37;101138.63;5087361;27;45424;-65
2021/12/23 04:57:50;;;;;;;;;66.67;44.67;;;;;1.14;71.18;101140.22;5091340;27;45326;-65
2021/12/23 05:00:20;;;;;;;;;77.33;57.67;;;;;1.20;71.77;101130.22;5088023;27;45321;-64
2021/12/23 05:02:46;;;;;;;;;62.33;46.33;;;;;1.23;70.95;101135.66;5095902;27;45448;-64
2021/12/23 05:05:12;;;;;;;;;67.67;52.33;;;;;1.18;70.85;101129.22;5086523;27;45546;-64
2021/12/23 05:07:38;;;;;;;;;66.33;49.67;;;;;1.29;71.19;101146.47;5093538;27;45504;-65
2021/12/23 05:10:09;;;;;;;;;61.33;43.67;;;;;1.29;71.11;101128.25;5085763;27;45398;-65
2021/12/23 05:12:43;;;;;;;;;66.67;50.00;;;;;1.29;70.70;101123.03;5092162;27;45509;-65
2021/12/23 05:15:17;;;;;;;;;46.33;38.33;;;;;1.31;70.59;101116.19;5083908;27;45458;-65
2021/12/23 05:17:43;;;;;;;;;100.25;79.50;;;;;1.21;70.73;101098.19;5090088;27;45351;-65
2021/12/23 05:20:11;;;;;;;;;64.67;45.67;;;;;1.27;71.10;101108.09;5099715;27;45355;-65
2021/12/23 05:22:37;;;;;;;;;61.67;44.33;;;;;1.35;71.31;101109.53;5088103;27;45554;-65
2021/12/23 05:25:04;;;;;;;;;43.67;36.67;;;;;1.29;70.99;101096.09;5098533;27;47440;-65
2021/12/23 05:27:29;;;;;;;;;63.00;46.67;;;;;1.28;71.59;101099.47;5097049;27;45321;-65
2021/12/23 05:29:55;;;;;;;;;72.67;51.00;;;;;1.37;71.49;101107.00;5101227;27;45358;-65
2021/12/23 05:32:20;;;;;;;;;63.67;49.00;;;;;1.37;71.16;101101.78;5095209;27;45394;-64
2021/12/23 05:34:46;;;;;;;;;70.33;51.67;;;;;1.43;71.46;101099.59;5082070;27;45336;-64
2021/12/23 05:37:11;;;;;;;;;59.67;48.67;;;;;1.45;70.98;101091.06;5095156;27;45280;-63
2021/12/23 05:39:37;;;;;;;;;73.33;55.67;;;;;1.41;71.36;101080.38;5082608;27;45339;-64
2021/12/23 05:42:03;;;;;;;;;67.33;48.33;;;;;1.45;71.07;101080.66;5093053;27;45518;-63
2021/12/23 05:44:28;;;;;;;;;69.67;47.67;;;;;1.45;71.12;101090.16;5082461;27;46287;-64
2021/12/23 05:46:53;;;;;;;;;69.33;55.33;;;;;1.46;71.19;101086.78;5096404;27;45433;-65
2021/12/23 05:49:19;;;;;;;;;69.67;53.67;;;;;1.53;71.44;101099.38;5095406;27;45236;-65
2021/12/23 05:51:44;;;;;;;;;79.67;57.00;;;;;1.48;70.88;101075.63;5086991;27;45207;-65
2021/12/23 05:54:09;;;;;;;;;60.67;47.33;;;;;1.53;70.62;101088.97;5093743;27;46122;-65
2021/12/23 05:56:35;;;;;;;;;61.67;46.00;;;;;1.51;70.74;101074.94;5090281;27;45296;-65
2021/12/23 05:59:00;;;;;;;;;65.00;49.00;;;;;1.54;71.08;101082.94;5092798;27;45728;-64
2021/12/23 06:01:26;;;;;;;;;68.00;48.67;;;;;1.60;70.87;101093.78;5088871;27;45481;-65
2021/12/23 06:03:51;;;;;;;;;68.67;49.00;;;;;1.54;70.88;101076.06;5091665;27;45309;-65
2021/12/23 06:06:17;;;;;;;;;53.00;45.33;;;;;1.62;70.92;101086.94;5087002;27;45418;-65
2021/12/23 06:08:42;;;;;;;;;55.67;45.33;;;;;1.64;70.89;101101.00;5090884;27;45416;-64
2021/12/23 06:11:08;;;;;;;;;57.00;46.67;;;;;1.63;71.17;101093.09;5095160;27;45629;-65
2021/12/23 06:13:34;;;;;;;;;71.67;54.67;;;;;1.65;71.15;101078.44;5087399;27;47984;-65
2021/12/23 06:15:59;;;;;;;;;67.33;52.33;;;;;1.67;70.23;101082.03;5085299;27;45317;-65
2021/12/23 06:18:25;;;;;;;;;69.67;54.00;;;;;1.61;71.11;101077.34;5088092;27;45374;-65
2021/12/23 06:20:50;;;;;;;;;65.00;51.00;;;;;1.70;70.83;101088.34;5084109;27;45676;-65
2021/12/23 06:23:16;;;;;;;;;60.33;44.67;;;;;1.68;70.81;101091.66;5086412;27;46199;-65
2021/12/23 06:25:42;;;;;;;;;62.33;47.33;;;;;1.66;70.92;101083.75;5083923;27;45386;-65
2021/12/23 06:28:07;;;;;;;;;65.00;51.33;;;;;1.63;71.23;101086.16;5094076;27;45380;-65
2021/12/23 06:30:33;;;;;;;;;61.33;45.33;;;;;1.64;71.08;101087.06;5097120;27;45422;-65
2021/12/23 06:32:58;;;;;;;;;60.00;45.67;;;;;1.69;71.43;101101.28;5090394;27;46231;-65
2021/12/23 06:35:26;;;;;;;;;61.33;47.67;;;;;1.70;70.93;101092.66;5088902;27;45348;-65
2021/12/23 06:37:52;;;;;;;;;61.00;48.00;;;;;1.75;71.34;101102.59;5092618;27;45344;-65
2021/12/23 06:40:18;;;;;;;;;62.67;48.33;;;;;1.77;71.22;101113.13;5092153;27;45753;-65
2021/12/23 06:42:44;;;;;;;;;63.00;45.00;;;;;1.76;71.42;101106.09;5088514;27;47967;-65
2021/12/23 06:45:11;;;;;;;;;62.67;48.67;;;;;1.76;70.84;101108.69;5082521;27;45382;-65
2021/12/23 06:47:37;;;;;;;;;51.67;34.67;;;;;1.73;71.53;101098.97;5100311;27;45239;-65
2021/12/23 06:50:04;;;;;;;;;68.33;53.00;;;;;1.75;71.31;101109.50;5087014;27;46077;-65
2021/12/23 06:52:31;;;;;;;;;67.67;52.00;;;;;1.72;71.67;101098.88;5087881;27;45476;-65
2021/12/23 06:54:57;;;;;;;;;66.33;51.67;;;;;1.69;71.07;101089.16;5087374;27;45285;-65
2021/12/23 06:57:24;;;;;;;;;66.33;49.67;;;;;1.81;71.28;101106.38;5088787;27;45389;-65
2021/12/23 06:59:49;;;;;;;;;60.33;48.33;;;;;1.79;71.23;101103.66;5094089;27;45349;-65
2021/12/23 07:02:15;;;;;;;;;65.00;46.33;;;;;1.61;70.94;101068.63;5091460;27;45305;-65
2021/12/23 07:04:42;;;;;;;;;62.67;47.33;;;;;1.78;71.03;101104.50;5087468;27;45343;-65
2021/12/23 07:07:13;;;;;;;;;66.67;51.67;;;;;1.73;71.54;101104.19;5086660;27;45358;-65
2021/12/23 07:09:42;;;;;;;;;76.33;57.00;;;;;1.81;71.62;101114.22;5086672;27;45317;-65
2021/12/23 07:12:09;;;;;;;;;71.00;52.67;;;;;1.82;70.90;101114.31;5088491;27;45421;-65
2021/12/23 07:14:36;;;;;;;;;52.33;44.00;;;;;1.83;71.15;101121.31;5096241;27;45673;-65
2021/12/23 07:17:01;;;;;;;;;65.00;48.67;;;;;1.84;71.36;101115.31;5085796;27;45271;-65
2021/12/23 07:19:27;;;;;;;;;46.33;36.33;;;;;1.85;71.33;101105.78;5085460;27;45333;-65
2021/12/23 07:21:53;;;;;;;;;64.00;48.00;;;;;1.82;71.06;101105.56;5082928;27;45306;-65
2021/12/23 07:24:20;;;;;;;;;69.67;53.00;;;;;1.86;71.66;101118.03;5080707;27;45469;-65
2021/12/23 07:26:45;;;;;;;;;65.67;50.67;;;;;1.72;71.37;101093.69;5090953;27;45346;-65
2021/12/23 07:29:10;;;;;;;;;67.67;51.33;;;;;1.88;71.79;101129.44;5081332;27;45407;-65
2021/12/23 07:31:36;;;;;;;;;66.00;49.00;;;;;1.85;72.04;101124.94;5089252;27;45395;-65
2021/12/23 07:34:01;;;;;;;;;59.00;45.00;;;;;1.78;70.94;101105.38;5082974;27;45522;-66
2021/12/23 07:36:27;;;;;;;;;63.00;49.33;;;;;1.85;71.14;101117.13;5090663;27;45395;-65
2021/12/23 07:38:56;;;;;;;;;64.33;50.00;;;;;1.94;71.50;101132.44;5085420;27;46801;-66
2021/12/23 07:41:25;;;;;;;;;67.33;53.33;;;;;1.93;71.92;101130.63;5093467;27;46626;-65
2021/12/23 07:44:04;;;;;;;;;55.67;46.33;;;;;1.96;70.97;101128.22;5083787;27;45283;-64
2021/12/23 07:46:34;;;;;;;;;58.00;45.67;;;;;1.95;71.93;101122.09;5091716;27;45390;-65
2021/12/23 07:49:00;;;;;;;;;78.67;60.67;;;;;1.97;71.83;101115.28;5094866;27;45384;-65
2021/12/23 07:51:26;;;;;;;;;64.00;51.67;;;;;2.09;71.44;101124.69;5084726;27;45620;-65
2021/12/23 07:53:53;;;;;;;;;78.00;58.33;;;;;2.21;71.98;101126.38;5091846;27;45418;-65
2021/12/23 07:56:19;;;;;;;;;83.00;60.67;;;;;2.25;71.96;101117.03;5086533;27;45350;-65
2021/12/23 07:58:45;;;;;;;;;66.67;53.00;;;;;2.33;71.75;101107.97;5090723;27;45564;-65
2021/12/23 08:01:11;;;;;;;;;69.33;50.00;;;;;2.39;71.50;101110.06;5085406;27;46615;-65
2021/12/23 08:03:36;;;;;;;;;66.67;50.00;;;;;2.35;71.25;101090.72;5088197;27;45458;-65
2021/12/23 08:06:02;;;;;;;;;71.67;51.67;;;;;2.45;71.58;101100.91;5084074;27;45326;-65
2021/12/23 08:08:28;;;;;;;;;66.33;47.00;;;;;2.54;70.44;101111.00;5090242;27;45488;-65
2021/12/23 08:10:54;;;;;;;;;61.00;47.67;;;;;2.55;70.91;101105.00;5082489;27;45515;-65
2021/12/23 08:13:19;;;;;;;;;60.33;46.33;;;;;2.63;70.68;101106.38;5089437;27;45251;-65
2021/12/23 08:15:45;;;;;;;;;58.00;46.67;;;;;2.65;70.56;101099.50;5082403;27;45419;-64
2021/12/23 08:18:10;;;;;;;;;60.00;46.67;;;;;2.74;70.77;101104.38;5087583;27;46171;-65
2021/12/23 08:20:36;;;;;;;;;61.33;45.33;;;;;2.89;70.21;101101.81;5081580;27;46445;-65
2021/12/23 08:23:02;;;;;;;;;52.67;44.33;;;;;2.97;70.53;101104.84;5083805;27;46072;-65
2021/12/23 08:25:27;;;;;;;;;64.67;49.33;;;;;3.04;70.94;101113.16;5080522;27;45397;-65
2021/12/23 08:27:53;;;;;;;;;59.00;44.00;;;;;3.03;70.44;101100.91;5090479;27;45306;-65
2021/12/23 08:30:19;;;;;;;;;64.00;49.33;;;;;3.14;70.39;101106.78;5081574;27;45338;-64
2021/12/23 08:32:46;;;;;;;;;56.75;43.50;;;;;3.22;70.39;101099.38;5088534;27;45429;-64
2021/12/23 08:35:12;;;;;;;;;52.25;35.75;;;;;2.99;70.35;101056.25;5079424;27;45210;-64
2021/12/23 08:37:39;;;;;;;;;65.00;44.67;;;;;3.31;70.18;101100.81;5089199;27;45470;-64
2021/12/23 08:40:08;;;;;;;;;52.25;43.00;;;;;3.36;70.00;101106.28;5089033;27;46737;-64
2021/12/23 08:42:35;;;;;;;;;60.25;47.25;;;;;3.43;69.90;101107.56;5085275;27;45448;-64
2021/12/23 08:45:03;;;;;;;;;58.50;49.50;;;;;3.42;69.74;101093.63;5079754;27;45261;-65
2021/12/23 08:47:28;;;;;;;;;63.50;48.25;;;;;3.54;69.68;101101.25;5096242;27;45416;-64
2021/12/23 08:49:54;;;;;;;;;57.25;45.25;;;;;3.57;69.51;101090.97;5087187;27;46450;-64
2021/12/23 08:52:19;;;;;;;;;59.75;45.00;;;;;3.54;69.68;101069.88;5091419;27;45321;-64
2021/12/23 08:54:45;;;;;;;;;60.50;45.75;;;;;3.73;69.80;101096.25;5086255;27;45323;-65
2021/12/23 08:57:10;;;;;;;;;63.75;46.25;;;;;3.71;69.45;101083.91;5092090;27;45343;-64
2021/12/23 08:59:36;;;;;;;;;58.50;49.25;;;;;3.83;69.68;101099.38;5087123;27;45385;-64
2021/12/23 09:02:03;;;;;;;;;63.67;46.67;;;;;3.90;69.41;101099.81;5085946;27;45443;-64
2021/12/23 09:04:28;;;;;;;;;52.00;43.00;;;;;3.89;69.34;101091.88;5087409;27;45290;-64
2021/12/23 09:06:53;;;;;;;;;61.00;47.00;;;;;3.98;69.60;101102.88;5082671;27;45839;-64
2021/12/23 09:09:19;;;;;;;;;52.25;44.75;;;;;4.06;69.23;101096.31;5086748;27;45476;-65
2021/12/23 09:11:45;;;;;;;;;59.25;44.25;;;;;4.01;69.86;101084.72;5082841;27;45300;-64
2021/12/23 09:14:11;;;;;;;;;55.75;43.00;;;;;4.13;69.80;101103.69;5101588;27;45276;-64
2021/12/23 09:16:38;;;;;;;;;58.25;47.00;;;;;4.21;70.02;101101.50;5081054;27;45335;-64
2021/12/23 09:19:04;;;;;;;;;51.75;43.00;;;;;4.02;69.52;101053.41;5086880;27;45441;-64
2021/12/23 09:21:30;;;;;;;;;57.50;43.25;;;;;4.28;69.45;101087.03;5090441;27;45381;-62
2021/12/23 09:23:55;;;;;;;;;49.75;42.25;;;;;4.32;69.80;101089.91;5106984;27;45632;-64
2021/12/23 09:26:22;;;;;;;;;55.50;42.25;;;;;4.33;69.71;101065.53;5101383;27;46287;-64
2021/12/23 09:34:00;;;;;;;;;36.75;36.50;;;;;4.51;69.33;101085.63;5114446;27;45633;-64
2021/12/23 09:36:25;;;;;;;;;38.50;35.00;;;;;4.54;69.91;101076.25;5092209;27;45352;-64
2021/12/23 09:38:52;;;;;;;;;61.50;44.50;;;;;4.53;69.73;101077.06;5083929;27;45384;-64
2021/12/23 09:41:20;;;;;;;;;53.75;41.00;;;;;4.60;70.20;101079.19;5093827;27;45353;-64
2021/12/23 09:43:47;;;;;;;;;54.75;41.25;;;;;4.66;69.91;101071.66;5101022;27;45339;-64
2021/12/23 09:46:15;;;;;;;;;46.75;42.25;;;;;4.77;70.01;101085.31;5090657;27;46299;-64
2021/12/23 09:48:44;;;;;;;;;51.25;41.00;;;;;4.82;69.92;101089.06;5099016;27;46728;-64
2021/12/23 09:51:12;;;;;;;;;55.25;43.75;;;;;4.83;69.89;101076.88;5086689;27;45365;-64
2021/12/23 09:53:41;;;;;;;;;47.00;39.00;;;;;4.89;69.90;101078.06;5094149;27;45389;-64
2021/12/23 09:56:07;;;;;;;;;60.25;42.50;;;;;4.93;69.41;101073.91;5091439;27;46565;-64
2021/12/23 09:58:33;;;;;;;;;55.50;43.25;;;;;4.92;69.55;101064.25;5095937;27;46410;-64
2021/12/23 10:00:59;;;;;;;;;52.50;40.25;;;;;5.09;69.68;101072.97;5084853;27;48074;-64
2021/12/23 10:03:26;;;;;;;;;42.25;39.50;;;;;5.11;69.89;101071.31;5095092;27;45362;-64
2021/12/23 10:05:53;;;;;;;;;56.00;41.50;;;;;5.19;69.80;101062.13;5083998;27;45504;-63
2021/12/23 10:08:19;;;;;;;;;59.00;44.75;;;;;5.27;70.02;101068.66;5089119;27;45708;-64
2021/12/23 10:10:51;;;;;;;;;56.25;44.00;;;;;5.37;70.45;101060.41;5084226;27;45257;-64
2021/12/23 10:38:30;;;;;;;;;56.50;41.75;;;;;6.07;70.61;101029.63;5089716;27;45453;-64
2021/12/23 10:41:00;;;;;;;;;48.75;38.75;;;;;6.11;70.22;101016.75;5098240;27;47350;-64
2021/12/23 10:43:40;;;;;;;;;47.75;38.75;;;;;6.15;69.71;101008.16;5089096;27;45299;-64
2021/12/23 10:46:22;;;;;;;;;39.75;32.75;;;;;6.27;69.71;101016.63;5103952;27;45349;-64
2021/12/23 10:49:42;;;;;;;;;46.00;38.00;;;;;6.34;71.11;101015.16;5096978;27;45401;-64
2021/12/23 10:51:56;;;;;;;;;49.00;36.50;;;;;6.43;69.87;101026.06;5087033;27;46026;-64
2021/12/23 11:00:31;;;;;;;;;48.75;39.25;;;;;6.60;71.02;101007.53;5082058;27;45552;-64
2021/12/23 11:03:32;;;;;;;;;33.25;29.50;;;;;6.66;71.05;101000.78;5093191;27;46805;-63
2021/12/23 11:06:18;;;;;;;;;44.75;38.50;;;;;6.72;70.59;101008.03;5091470;27;45405;-64
2021/12/23 11:09:14;;;;;;;;;44.75;38.00;;;;;6.76;70.43;100991.59;5089745;27;45422;-64
2021/12/23 11:42:04;;;;;;;;;37.75;34.00;;;;;7.38;70.77;100976.63;5084850;27;45369;-63
2021/12/23 11:44:31;;;;;;;;;32.00;23.50;;;;;7.43;71.11;100975.06;5096992;27;45399;-63
2021/12/23 11:47:12;;;;;;;;;41.50;31.50;;;;;7.48;71.66;100983.13;5094936;27;45461;-64
2021/12/23 11:49:40;;;;;;;;;31.75;30.00;;;;;7.47;71.87;100966.47;5080521;27;45429;-64
2021/12/23 11:52:06;;;;;;;;;36.00;29.50;;;;;7.44;71.51;100954.94;5088716;27;45351;-63
2021/12/23 11:54:41;;;;;;;;;38.50;33.75;;;;;7.58;71.29;100974.78;5089807;27;45387;-63
2021/12/23 11:57:09;;;;;;;;;39.50;31.75;;;;;7.65;71.52;100973.31;5086159;27;45545;-63
2021/12/23 11:59:37;;;;;;;;;51.75;38.50;;;;;7.65;71.50;100957.53;5088388;27;45234;-64
2021/12/23 12:02:15;;;;;;;;;55.00;43.00;;;;;7.72;71.28;100954.25;5086843;27;45374;-64
2021/12/23 12:04:41;;;;;;;;;46.25;37.50;;;;;7.74;72.11;100944.69;5085549;27;45326;-64
2021/12/23 12:07:18;;;;;;;;;54.00;40.25;;;;;7.85;71.46;100960.06;5085469;27;45359;-64
2021/12/23 12:10:05;;;;;;;;;43.75;38.25;;;;;7.95;71.44;100957.75;5084308;27;45361;-64
2021/12/23 12:12:32;;;;;;;;;52.50;40.50;;;;;7.97;71.29;100941.19;5087879;27;45300;-64
2021/12/23 12:14:59;;;;;;;;;37.75;34.25;;;;;8.07;71.24;100937.16;5081090;27;45592;-64
2021/12/23 12:17:25;;;;;;;;;47.75;39.50;;;;;8.15;71.45;100934.78;5089540;27;48142;-64
2021/12/23 12:20:11;;;;;;;;;47.25;38.75;;;;;8.21;71.39;100927.16;5078557;27;45539;-64
2021/12/23 12:22:48;;;;;;;;;39.50;34.50;;;;;8.28;71.32;100932.66;5088650;27;45362;-64
2021/12/23 12:25:23;;;;;;;;;41.75;36.00;;;;;8.39;71.11;100924.28;5079501;27;47365;-64
2021/12/23 12:27:55;;;;;;;;;44.25;35.25;;;;;8.48;70.94;100916.69;5096617;27;46352;-64
2021/12/23 12:30:45;;;;;;;;;44.25;38.00;;;;;8.66;71.00;100914.69;5096246;27;45414;-64
2021/12/23 12:33:23;;;;;;;;;33.25;27.50;;;;;8.79;70.38;100916.00;5084056;27;45554;-64